Time;durP1;ratioP1;P1;durP2;ratioP2;P2;SDS_P1;SDS_P2;PMS_P1;PMS_P2;Temp;Humidity;BMP_temperature;BMP_pressure;BME280_temperature;BME280_humidity;BME280_pressure;Samples;Min_cycle;Max_cycle;Signal;HPM_P1;HPM_P2
2023/07/20 00:01:44;;;;;;;21.27;13.83;;;15.50;99.90;;;;;;4245827;27;20261;-79
2023/07/20 00:03:48;;;;;;;22.17;13.40;;;15.50;99.90;;;;;;4243545;28;20640;-79
2023/07/20 00:05:49;;;;;;;18.87;12.97;;;15.50;99.90;;;;;;4244264;28;20310;-79
2023/07/20 00:07:52;;;;;;;17.00;11.93;;;15.50;99.90;;;;;;4238140;28;20223;-79
2023/07/20 00:09:53;;;;;;;15.67;11.47;;;15.40;99.90;;;;;;4239122;28;20210;-79
2023/07/20 00:11:55;;;;;;;14.80;11.07;;;15.40;99.90;;;;;;4242553;27;20306;-79
2023/07/20 00:13:59;;;;;;;16.67;11.40;;;15.40;99.90;;;;;;4244207;27;20228;-79
2023/07/20 00:16:01;;;;;;;17.70;10.90;;;15.40;99.90;;;;;;4243055;27;20318;-78
2023/07/20 00:18:02;;;;;;;17.60;12.77;;;15.40;99.90;;;;;;4243826;27;20223;-79
2023/07/20 00:20:06;;;;;;;17.93;10.93;;;15.40;99.90;;;;;;4245298;27;20288;-79
2023/07/20 00:22:07;;;;;;;15.07;9.50;;;15.40;99.90;;;;;;4244551;27;20211;-78
2023/07/20 00:24:09;;;;;;;17.17;10.17;;;15.40;99.90;;;;;;4242639;27;20211;-78
2023/07/20 00:26:11;;;;;;;17.40;10.90;;;15.40;99.90;;;;;;4244869;27;20241;-79
2023/07/20 00:28:13;;;;;;;14.73;9.70;;;15.40;99.90;;;;;;4240811;27;20313;-78
2023/07/20 00:30:18;;;;;;;12.60;9.03;;;15.40;99.90;;;;;;4242847;27;20267;-79
2023/07/20 00:32:20;;;;;;;12.60;9.03;;;15.30;99.90;;;;;;4236247;27;20261;-79
2023/07/20 00:34:22;;;;;;;11.30;8.50;;;15.30;99.90;;;;;;4244106;27;20302;-79
2023/07/20 00:36:24;;;;;;;12.07;7.90;;;15.30;99.90;;;;;;4243135;27;20685;-79
2023/07/20 00:38:25;;;;;;;11.43;8.43;;;15.30;99.90;;;;;;4244431;27;20206;-79
2023/07/20 00:40:27;;;;;;;13.87;8.50;;;15.30;99.90;;;;;;4244938;27;20267;-79
2023/07/20 00:42:29;;;;;;;10.03;7.67;;;15.30;99.90;;;;;;4239637;27;20211;-79
2023/07/20 00:44:31;;;;;;;10.23;7.30;;;15.30;99.90;;;;;;4240236;27;20215;-79
2023/07/20 00:46:35;;;;;;;11.33;7.03;;;15.30;99.90;;;;;;4243634;27;20226;-79
2023/07/20 00:48:37;;;;;;;8.47;6.40;;;15.30;99.90;;;;;;4242097;27;20225;-79
2023/07/20 00:50:40;;;;;;;11.90;7.00;;;15.30;99.90;;;;;;4235954;27;20208;-79
2023/07/20 00:52:44;;;;;;;12.23;7.63;;;15.30;99.90;;;;;;4242439;27;20588;-79
2023/07/20 00:54:46;;;;;;;17.47;8.37;;;15.30;99.90;;;;;;4242951;27;20228;-79
2023/07/20 00:56:48;;;;;;;8.77;6.20;;;15.30;99.90;;;;;;4240608;27;21771;-78
2023/07/20 00:58:50;;;;;;;10.63;6.03;;;15.30;99.90;;;;;;4239173;27;20294;-79
2023/07/20 01:00:52;;;;;;;9.07;6.17;;;15.30;99.90;;;;;;4243681;27;20248;-78
2023/07/20 01:02:55;;;;;;;7.87;5.80;;;15.30;99.90;;;;;;4241931;27;20219;-79
2023/07/20 01:04:57;;;;;;;9.40;6.40;;;15.30;99.90;;;;;;4242134;27;20206;-79
2023/07/20 01:07:07;;;;;;;9.13;6.03;;;15.30;99.90;;;;;;4240711;27;20392;-79
2023/07/20 01:09:15;;;;;;;8.60;5.70;;;15.30;99.90;;;;;;4239150;27;20299;-79
2023/07/20 01:11:22;;;;;;;7.73;5.87;;;15.30;99.90;;;;;;4239877;27;20229;-79
2023/07/20 01:13:25;;;;;;;10.93;8.10;;;15.30;99.90;;;;;;4242899;27;20207;-79
2023/07/20 01:15:27;;;;;;;11.00;7.40;;;15.40;99.90;;;;;;4237231;27;20211;-79
2023/07/20 01:17:28;;;;;;;13.77;8.03;;;15.30;99.90;;;;;;4236936;27;20231;-78
2023/07/20 01:19:32;;;;;;;10.37;7.90;;;15.30;99.90;;;;;;4243700;27;20651;-79
2023/07/20 01:21:41;;;;;;;11.37;7.13;;;15.30;99.90;;;;;;4238351;27;20202;-78
2023/07/20 01:24:23;;;;;;;10.97;6.97;;;15.30;99.90;;;;;;4242053;27;20217;-78
2023/07/20 01:26:55;;;;;;;12.00;7.97;;;15.30;99.90;;;;;;4238184;27;20834;-78
2023/07/20 01:29:13;;;;;;;9.17;6.77;;;15.30;99.90;;;;;;4241366;27;20272;-78
2023/07/20 01:31:21;;;;;;;10.77;7.10;;;15.30;99.90;;;;;;4239223;27;20210;-79
2023/07/20 01:33:26;;;;;;;8.70;6.93;;;15.30;99.90;;;;;;4239888;27;20295;-78
2023/07/20 01:35:30;;;;;;;11.73;7.70;;;15.30;99.90;;;;;;4240700;27;20215;-78
2023/07/20 01:37:33;;;;;;;11.87;7.80;;;15.30;99.90;;;;;;4244074;27;20286;-78
2023/07/20 01:39:37;;;;;;;9.67;6.77;;;15.30;99.90;;;;;;4240094;27;20312;-78
2023/07/20 01:41:39;;;;;;;10.10;6.93;;;15.30;99.90;;;;;;4240855;27;20243;-78
2023/07/20 01:43:41;;;;;;;13.73;7.80;;;15.30;99.90;;;;;;4239141;27;20238;-78
2023/07/20 01:45:43;;;;;;;8.83;6.40;;;15.20;99.90;;;;;;4240521;27;20245;-78
2023/07/20 01:47:46;;;;;;;8.90;7.00;;;15.20;99.90;;;;;;4242255;27;21013;-78
2023/07/20 01:49:47;;;;;;;9.73;7.17;;;15.20;99.90;;;;;;4241505;27;20236;-78
2023/07/20 01:51:49;;;;;;;11.80;8.37;;;15.20;99.90;;;;;;4239640;27;20872;-78
2023/07/20 01:53:51;;;;;;;10.17;7.70;;;15.20;99.90;;;;;;4238175;27;20612;-78
2023/07/20 01:55:54;;;;;;;10.50;7.63;;;15.10;99.90;;;;;;4244712;27;20568;-78
2023/07/20 01:57:55;;;;;;;11.27;7.73;;;15.10;99.90;;;;;;4239262;27;20214;-78
2023/07/20 01:59:57;;;;;;;15.13;7.10;;;15.10;99.90;;;;;;4241002;27;20199;-79
2023/07/20 02:01:59;;;;;;;13.83;7.00;;;15.00;99.90;;;;;;4239872;27;20301;-78
2023/07/20 02:04:02;;;;;;;10.47;7.47;;;15.10;99.90;;;;;;4231914;28;20550;-78
2023/07/20 02:06:04;;;;;;;10.30;7.00;;;15.00;99.90;;;;;;4242958;27;20225;-78
2023/07/20 02:08:05;;;;;;;11.00;7.27;;;15.00;99.90;;;;;;4241018;27;20238;-78
2023/07/20 02:10:08;;;;;;;9.90;7.17;;;15.00;99.90;;;;;;4240808;27;20207;-78
2023/07/20 02:12:10;;;;;;;14.30;8.60;;;15.00;99.90;;;;;;4242335;27;20234;-78
2023/07/20 02:14:12;;;;;;;10.90;7.50;;;14.90;99.90;;;;;;4239089;27;20216;-78
2023/07/20 02:16:14;;;;;;;8.30;6.40;;;14.90;99.90;;;;;;4243433;27;20293;-78
2023/07/20 02:18:16;;;;;;;14.03;8.27;;;14.80;99.90;;;;;;4237283;27;20219;-78
2023/07/20 02:20:20;;;;;;;12.93;7.40;;;14.80;99.90;;;;;;4246744;27;20586;-79
2023/07/20 02:22:22;;;;;;;12.33;6.70;;;14.80;99.90;;;;;;4241570;27;20211;-78
2023/07/20 02:24:24;;;;;;;10.23;7.07;;;14.80;99.90;;;;;;4241668;27;20210;-78
2023/07/20 02:26:26;;;;;;;8.47;6.30;;;14.90;99.90;;;;;;4243700;27;20245;-78
2023/07/20 02:28:28;;;;;;;12.53;8.00;;;14.80;99.90;;;;;;4243679;27;20775;-78
2023/07/20 02:30:30;;;;;;;11.07;6.47;;;14.80;99.90;;;;;;4245107;27;20211;-79
2023/07/20 02:32:34;;;;;;;12.87;7.77;;;14.90;99.90;;;;;;4241816;27;20214;-79
2023/07/20 02:34:36;;;;;;;19.13;8.90;;;15.00;99.90;;;;;;4243952;27;20220;-78
2023/07/20 02:36:42;;;;;;;11.20;7.70;;;14.90;99.90;;;;;;4244723;27;20874;-78
2023/07/20 02:38:47;;;;;;;12.73;7.53;;;14.90;99.90;;;;;;4242946;27;20813;-78
2023/07/20 02:40:49;;;;;;;8.43;6.93;;;14.90;99.90;;;;;;4238771;27;20210;-78
2023/07/20 02:42:50;;;;;;;11.23;7.07;;;14.90;99.90;;;;;;4236507;27;20351;-78
2023/07/20 02:44:52;;;;;;;10.20;7.07;;;14.90;99.90;;;;;;4238090;27;20201;-78
2023/07/20 02:46:54;;;;;;;13.87;8.30;;;14.90;99.90;;;;;;4234461;27;20664;-79
2023/07/20 02:48:56;;;;;;;15.13;8.27;;;14.90;99.90;;;;;;4237683;27;20317;-79
2023/07/20 02:50:58;;;;;;;13.83;8.03;;;14.80;99.90;;;;;;4243579;27;20238;-78
2023/07/20 02:53:01;;;;;;;13.63;8.63;;;14.90;99.90;;;;;;4239322;27;20311;-78
2023/07/20 02:55:03;;;;;;;13.67;7.37;;;14.90;99.90;;;;;;4244869;27;20201;-78
2023/07/20 02:57:06;;;;;;;11.83;6.77;;;14.90;99.90;;;;;;4239928;27;20310;-78
2023/07/20 02:59:08;;;;;;;11.93;7.53;;;14.80;99.90;;;;;;4242425;27;20208;-79
2023/07/20 03:01:10;;;;;;;9.87;6.50;;;14.90;99.90;;;;;;4241133;28;20229;-78
2023/07/20 03:03:12;;;;;;;11.97;7.13;;;14.90;99.90;;;;;;4240346;27;20214;-78
2023/07/20 03:05:15;;;;;;;12.53;7.80;;;14.90;99.90;;;;;;4244986;27;20237;-79
2023/07/20 03:07:18;;;;;;;9.63;7.03;;;14.90;99.90;;;;;;4243032;28;20313;-78
2023/07/20 03:09:21;;;;;;;14.73;8.33;;;14.90;99.90;;;;;;4249613;28;20230;-79
2023/07/20 03:11:24;;;;;;;13.43;6.83;;;14.90;99.90;;;;;;4252099;28;20272;-80
2023/07/20 03:13:26;;;;;;;11.23;7.43;;;14.90;99.90;;;;;;4258222;28;20211;-79
2023/07/20 03:15:29;;;;;;;15.27;7.33;;;14.90;99.90;;;;;;4250755;28;20245;-80
2023/07/20 03:17:30;;;;;;;14.33;8.13;;;14.90;99.90;;;;;;4261530;28;20257;-79
2023/07/20 03:19:31;;;;;;;11.60;7.17;;;15.00;99.90;;;;;;4245592;28;20201;-79
2023/07/20 03:21:33;;;;;;;11.67;6.43;;;15.00;99.90;;;;;;4237591;27;20306;-79
2023/07/20 03:23:35;;;;;;;11.30;7.60;;;15.00;99.90;;;;;;4234342;27;20204;-79
2023/07/20 03:25:38;;;;;;;13.93;8.10;;;15.00;99.90;;;;;;4239445;28;20297;-82
2023/07/20 03:27:40;;;;;;;15.57;7.93;;;15.00;99.90;;;;;;4233642;28;20760;-79
2023/07/20 03:29:42;;;;;;;13.90;8.00;;;15.00;99.90;;;;;;4234412;28;20330;-80
2023/07/20 03:31:44;;;;;;;14.03;8.17;;;15.00;99.90;;;;;;4239718;28;20211;-80
2023/07/20 03:33:46;;;;;;;14.50;8.33;;;15.00;99.90;;;;;;4237001;28;20241;-80
2023/07/20 03:35:48;;;;;;;15.90;8.47;;;15.00;99.90;;;;;;4236663;27;20213;-80
2023/07/20 03:37:50;;;;;;;14.70;8.70;;;15.10;99.90;;;;;;4238317;28;20218;-80
2023/07/20 03:39:52;;;;;;;9.60;7.20;;;15.10;99.90;;;;;;4235371;28;20204;-80
2023/07/20 03:41:58;;;;;;;10.30;7.07;;;15.10;99.90;;;;;;4239355;28;20231;-79
2023/07/20 03:43:59;;;;;;;15.53;8.77;;;15.10;99.90;;;;;;4237467;28;20210;-79
2023/07/20 03:46:06;;;;;;;14.47;7.70;;;15.10;99.90;;;;;;4239627;27;20700;-79
2023/07/20 03:48:09;;;;;;;13.90;9.23;;;15.10;99.90;;;;;;4241949;27;20280;-80
2023/07/20 03:50:11;;;;;;;12.23;8.00;;;15.10;99.90;;;;;;4238844;27;20205;-79
2023/07/20 03:52:13;;;;;;;11.50;8.47;;;15.10;99.90;;;;;;4238802;27;20214;-79
2023/07/20 03:54:15;;;;;;;15.70;9.17;;;15.10;99.90;;;;;;4246668;27;20221;-79
2023/07/20 03:56:17;;;;;;;17.07;9.60;;;15.10;99.90;;;;;;4236978;27;20662;-79
2023/07/20 03:58:21;;;;;;;19.43;11.17;;;15.10;99.90;;;;;;4242180;27;20743;-80
2023/07/20 04:00:23;;;;;;;20.53;10.30;;;15.10;99.90;;;;;;4237704;27;20241;-75
2023/07/20 04:02:25;;;;;;;14.43;9.20;;;15.10;99.90;;;;;;4240994;27;20204;-79
2023/07/20 04:04:27;;;;;;;18.57;10.93;;;15.10;99.90;;;;;;4236682;27;20664;-79
2023/07/20 04:06:29;;;;;;;15.40;9.27;;;15.10;99.90;;;;;;4239622;27;20295;-78
2023/07/20 04:08:31;;;;;;;17.07;10.40;;;15.10;99.90;;;;;;4237962;27;20228;-78
2023/07/20 04:10:33;;;;;;;13.00;8.10;;;15.10;99.90;;;;;;4238059;27;20708;-78
2023/07/20 04:12:35;;;;;;;14.37;7.90;;;15.10;99.90;;;;;;4236894;27;20920;-78
2023/07/20 04:14:40;;;;;;;10.37;7.57;;;15.10;99.90;;;;;;4238787;27;20221;-77
2023/07/20 04:16:42;;;;;;;11.80;7.40;;;15.20;99.90;;;;;;4233537;27;20611;-78
2023/07/20 04:18:43;;;;;;;11.90;6.83;;;15.20;99.90;;;;;;4234243;27;20238;-77
2023/07/20 04:20:45;;;;;;;12.40;7.43;;;15.20;99.90;;;;;;4234135;27;20203;-77
2023/07/20 04:22:47;;;;;;;10.13;6.53;;;15.20;99.90;;;;;;4241012;27;20233;-77
2023/07/20 04:24:49;;;;;;;14.33;7.87;;;15.20;99.90;;;;;;4237559;27;20211;-76
2023/07/20 04:26:51;;;;;;;9.33;6.93;;;15.30;99.90;;;;;;4237583;27;20265;-77
2023/07/20 04:28:53;;;;;;;11.83;7.80;;;15.30;99.90;;;;;;4241564;27;20252;-77
2023/07/20 04:31:09;;;;;;;10.93;7.40;;;15.30;99.90;;;;;;4237214;27;20204;-77
2023/07/20 04:33:11;;;;;;;14.17;9.27;;;15.30;99.90;;;;;;4241520;27;20203;-77
2023/07/20 04:35:19;;;;;;;12.17;8.57;;;15.40;99.90;;;;;;4244506;27;20569;-77
2023/07/20 04:37:21;;;;;;;11.13;8.47;;;15.40;99.90;;;;;;4241005;27;20325;-77
2023/07/20 04:39:22;;;;;;;16.87;10.30;;;15.40;99.90;;;;;;4240366;27;20219;-78
2023/07/20 04:41:25;;;;;;;12.53;8.77;;;15.40;99.90;;;;;;4234838;27;20246;-78
2023/07/20 04:43:28;;;;;;;20.20;10.87;;;15.40;99.90;;;;;;4238363;27;20204;-77
2023/07/20 04:45:30;;;;;;;14.97;9.40;;;15.30;99.90;;;;;;4239500;27;20239;-77
2023/07/20 04:47:33;;;;;;;15.63;9.47;;;15.30;99.90;;;;;;4236323;27;20250;-77
2023/07/20 04:49:34;;;;;;;14.20;8.87;;;15.30;99.90;;;;;;4242793;27;20222;-77
2023/07/20 04:51:36;;;;;;;14.47;9.17;;;15.30;99.90;;;;;;4239446;27;20210;-77
2023/07/20 04:53:38;;;;;;;16.10;10.07;;;15.30;99.90;;;;;;4237207;27;20257;-78
2023/07/20 04:55:40;;;;;;;15.93;9.57;;;15.30;99.90;;;;;;4237626;27;20211;-78
2023/07/20 04:57:42;;;;;;;14.33;9.00;;;15.30;99.90;;;;;;4237753;27;20204;-78
2023/07/20 04:59:44;;;;;;;11.27;7.90;;;15.30;99.90;;;;;;4234924;27;20762;-77
2023/07/20 05:01:46;;;;;;;15.27;8.63;;;15.30;99.90;;;;;;4234228;27;20649;-77
2023/07/20 05:03:49;;;;;;;12.13;8.63;;;15.30;99.90;;;;;;4237539;27;20682;-78
2023/07/20 05:05:51;;;;;;;13.67;7.80;;;15.30;99.90;;;;;;4243386;27;20199;-77
2023/07/20 05:07:52;;;;;;;10.00;7.57;;;15.30;99.90;;;;;;4241000;27;20233;-77
2023/07/20 05:09:54;;;;;;;9.73;7.63;;;15.40;99.90;;;;;;4238651;27;20255;-78
2023/07/20 05:11:54;;;;;;;14.27;8.63;;;15.40;99.90;;;;;;4233226;27;20236;-77
2023/07/20 05:13:56;;;;;;;14.10;7.80;;;15.40;99.90;;;;;;4236702;27;20223;-76
2023/07/20 05:15:58;;;;;;;15.20;9.00;;;15.50;99.90;;;;;;4240408;27;20759;-76
2023/07/20 05:17:59;;;;;;;10.63;7.30;;;15.50;99.90;;;;;;4242684;27;20249;-77
2023/07/20 05:20:03;;;;;;;8.23;6.30;;;15.50;99.90;;;;;;4239910;27;20199;-76
2023/07/20 05:22:05;;;;;;;15.27;8.37;;;15.50;99.90;;;;;;4236187;27;20211;-76
2023/07/20 05:24:07;;;;;;;12.13;7.57;;;15.50;99.90;;;;;;4235680;27;20212;-75
2023/07/20 05:26:09;;;;;;;10.90;7.27;;;15.60;99.90;;;;;;4240888;27;20299;-76
2023/07/20 05:28:11;;;;;;;8.37;7.07;;;15.60;99.90;;;;;;4237452;27;20226;-76
2023/07/20 05:30:13;;;;;;;19.63;9.23;;;15.60;99.90;;;;;;4238115;27;20581;-75
2023/07/20 05:32:15;;;;;;;12.97;7.93;;;15.60;99.90;;;;;;4237695;27;20266;-76
2023/07/20 05:34:17;;;;;;;10.73;7.27;;;15.60;99.90;;;;;;4238859;27;20667;-78
2023/07/20 05:36:20;;;;;;;11.80;7.47;;;15.60;99.90;;;;;;4234498;27;20236;-77
2023/07/20 05:38:22;;;;;;;14.37;8.43;;;15.70;99.90;;;;;;4238063;27;20219;-76
2023/07/20 05:40:24;;;;;;;11.17;7.17;;;15.60;99.90;;;;;;4233368;27;20294;-76
2023/07/20 05:42:26;;;;;;;14.87;7.70;;;15.60;99.90;;;;;;4234932;27;20294;-76
2023/07/20 05:44:28;;;;;;;8.93;6.13;;;15.60;99.90;;;;;;4229270;27;20217;-76
2023/07/20 05:46:30;;;;;;;10.47;7.00;;;15.60;99.90;;;;;;4239822;27;20322;-77
2023/07/20 05:48:32;;;;;;;13.60;7.53;;;15.60;99.90;;;;;;4239133;27;20208;-76
2023/07/20 05:50:34;;;;;;;15.37;7.30;;;15.60;99.90;;;;;;4238038;27;20203;-77
2023/07/20 05:52:38;;;;;;;12.07;7.83;;;15.70;99.90;;;;;;4234627;27;20211;-77
2023/07/20 05:54:40;;;;;;;11.80;8.20;;;15.70;99.90;;;;;;4243183;27;20235;-77
2023/07/20 05:56:42;;;;;;;10.13;7.97;;;15.80;99.90;;;;;;4232376;27;20228;-77
2023/07/20 05:58:44;;;;;;;8.47;6.63;;;15.90;99.90;;;;;;4232819;27;20639;-77
2023/07/20 06:00:49;;;;;;;10.70;7.27;;;15.90;99.90;;;;;;4244198;27;20226;-77
2023/07/20 06:02:52;;;;;;;9.00;6.90;;;15.90;99.90;;;;;;4244848;27;20219;-77
2023/07/20 06:04:54;;;;;;;13.97;6.47;;;15.90;99.90;;;;;;4233471;27;20196;-77
2023/07/20 06:06:56;;;;;;;16.27;7.07;;;16.00;99.90;;;;;;4245701;27;20223;-77
2023/07/20 06:09:02;;;;;;;8.87;6.80;;;16.00;99.90;;;;;;4237629;27;20302;-77
2023/07/20 06:11:04;;;;;;;9.00;6.90;;;16.00;99.90;;;;;;4240575;27;20208;-78
2023/07/20 06:13:07;;;;;;;8.50;5.83;;;16.00;99.90;;;;;;4230941;27;20204;-77
2023/07/20 06:15:26;;;;;;;12.97;6.03;;;16.00;99.90;;;;;;4240895;27;20227;-77
2023/07/20 06:17:28;;;;;;;9.13;5.90;;;16.10;99.90;;;;;;4237457;27;20235;-77
2023/07/20 06:19:30;;;;;;;8.07;5.20;;;16.10;99.90;;;;;;4243765;27;20295;-77
2023/07/20 06:21:32;;;;;;;9.93;5.83;;;16.10;99.90;;;;;;4233195;27;20296;-77
2023/07/20 06:23:33;;;;;;;7.10;5.50;;;16.00;99.90;;;;;;4240928;27;20295;-77
2023/07/20 06:25:37;;;;;;;10.07;5.33;;;16.10;99.90;;;;;;4231169;27;20211;-76
2023/07/20 06:27:39;;;;;;;9.67;5.70;;;16.10;99.90;;;;;;4230458;27;20222;-77
2023/07/20 06:29:40;;;;;;;8.37;5.20;;;16.10;99.90;;;;;;4242329;27;20232;-78
2023/07/20 06:31:42;;;;;;;8.67;5.23;;;16.20;99.90;;;;;;4236091;27;20212;-76
2023/07/20 06:33:43;;;;;;;6.37;5.60;;;16.20;99.90;;;;;;4239720;27;20212;-75
2023/07/20 06:35:45;;;;;;;12.20;7.27;;;16.20;99.90;;;;;;4235024;27;20692;-76
2023/07/20 06:37:47;;;;;;;9.87;6.60;;;16.30;99.90;;;;;;4235833;27;20303;-78
2023/07/20 06:39:49;;;;;;;11.27;7.10;;;16.30;99.90;;;;;;4238665;27;20214;-75
2023/07/20 06:41:52;;;;;;;11.27;7.93;;;16.30;99.90;;;;;;4235757;27;20295;-76
2023/07/20 06:43:57;;;;;;;11.70;6.47;;;16.40;99.90;;;;;;4236890;27;20303;-78
2023/07/20 06:45:59;;;;;;;8.27;7.40;;;16.40;99.90;;;;;;4243479;27;20233;-76
2023/07/20 06:48:02;;;;;;;9.43;6.30;;;16.40;99.90;;;;;;4239445;27;20300;-76
2023/07/20 06:50:04;;;;;;;10.20;7.07;;;16.40;99.90;;;;;;4248310;27;20228;-76
2023/07/20 06:52:06;;;;;;;7.60;5.90;;;16.50;99.90;;;;;;4239873;27;20211;-77
2023/07/20 06:54:07;;;;;;;6.43;5.80;;;16.50;99.90;;;;;;4236045;27;20299;-77
2023/07/20 06:56:09;;;;;;;9.00;5.77;;;16.60;99.90;;;;;;4236427;27;20475;-77
2023/07/20 06:58:13;;;;;;;6.60;5.50;;;16.60;99.90;;;;;;4234454;27;20287;-76
2023/07/20 07:00:15;;;;;;;6.87;5.67;;;16.60;99.90;;;;;;4236858;27;20394;-77
2023/07/20 07:02:17;;;;;;;7.63;5.10;;;16.80;99.90;;;;;;4240644;27;20646;-79
2023/07/20 07:04:19;;;;;;;8.73;5.30;;;16.90;99.90;;;;;;4231081;27;20309;-77
2023/07/20 07:06:22;;;;;;;5.23;4.30;;;17.00;99.90;;;;;;4236662;27;20260;-77
2023/07/20 07:08:24;;;;;;;5.80;4.17;;;17.10;99.90;;;;;;4236338;28;20203;-77
2023/07/20 07:10:28;;;;;;;7.67;3.93;;;17.10;99.90;;;;;;4240436;28;20268;-77
2023/07/20 07:12:30;;;;;;;8.17;3.70;;;17.20;99.90;;;;;;4238711;28;20588;-77
2023/07/20 07:14:33;;;;;;;7.30;4.03;;;17.30;99.90;;;;;;4233973;28;20206;-76
2023/07/20 07:16:35;;;;;;;4.53;3.40;;;17.20;99.90;;;;;;4241973;28;20255;-77
2023/07/20 07:18:37;;;;;;;6.00;3.90;;;17.20;99.90;;;;;;4242781;28;20682;-77
2023/07/20 07:20:39;;;;;;;3.80;3.40;;;17.20;99.90;;;;;;4236181;27;20206;-77
2023/07/20 07:22:43;;;;;;;6.63;4.00;;;17.20;99.90;;;;;;4241390;27;20293;-77
2023/07/20 07:24:45;;;;;;;7.97;4.00;;;17.30;99.90;;;;;;4246065;27;20237;-77
2023/07/20 07:26:47;;;;;;;4.87;4.00;;;17.20;99.90;;;;;;4234692;27;20823;-76
2023/07/20 07:28:49;;;;;;;4.40;3.40;;;17.20;99.90;;;;;;4240061;27;20793;-77
2023/07/20 07:30:52;;;;;;;5.10;3.83;;;17.20;99.90;;;;;;4241911;27;20312;-77
2023/07/20 07:32:54;;;;;;;9.43;3.70;;;17.10;99.90;;;;;;4242922;27;20202;-77
2023/07/20 07:34:58;;;;;;;4.83;3.10;;;17.10;99.90;;;;;;4235832;27;20668;-77
2023/07/20 07:37:00;;;;;;;6.03;3.83;;;17.10;99.90;;;;;;4240391;27;20228;-78
2023/07/20 07:39:02;;;;;;;6.70;4.17;;;17.10;99.90;;;;;;4241509;27;20305;-77
2023/07/20 07:41:04;;;;;;;6.13;3.70;;;17.10;99.90;;;;;;4246129;27;20208;-77
2023/07/20 07:43:06;;;;;;;5.37;3.63;;;17.20;99.90;;;;;;4239640;27;20691;-78
2023/07/20 07:45:09;;;;;;;6.30;3.93;;;17.20;99.90;;;;;;4239037;27;21914;-78
2023/07/20 07:47:12;;;;;;;9.53;4.10;;;17.30;99.90;;;;;;4243669;27;20265;-77
2023/07/20 07:49:14;;;;;;;5.40;3.77;;;17.30;99.90;;;;;;4245517;27;20295;-78
2023/07/20 07:51:16;;;;;;;5.47;3.87;;;17.40;99.90;;;;;;4237816;27;20232;-77
2023/07/20 07:53:18;;;;;;;5.87;3.60;;;17.40;99.90;;;;;;4239632;27;20206;-77
2023/07/20 07:55:20;;;;;;;4.10;3.70;;;17.40;99.90;;;;;;4235015;27;20203;-77
2023/07/20 07:57:22;;;;;;;5.80;3.50;;;17.40;99.90;;;;;;4248846;27;20234;-77
2023/07/20 07:59:24;;;;;;;4.73;3.33;;;17.40;99.90;;;;;;4241841;27;20361;-77
2023/07/20 08:01:25;;;;;;;4.67;3.37;;;17.40;99.90;;;;;;4241923;27;20291;-77
2023/07/20 08:03:29;;;;;;;4.13;3.53;;;17.50;99.90;;;;;;4242643;27;20257;-77
2023/07/20 08:05:30;;;;;;;3.30;3.00;;;17.40;99.90;;;;;;4241744;27;20655;-79
2023/07/20 08:07:32;;;;;;;3.73;2.90;;;17.50;99.90;;;;;;4235749;27;20236;-77
2023/07/20 08:09:36;;;;;;;3.83;3.03;;;17.60;99.90;;;;;;4235616;27;20301;-77
2023/07/20 08:11:40;;;;;;;7.27;3.73;;;17.80;99.90;;;;;;4235674;27;20308;-77
2023/07/20 08:13:42;;;;;;;9.07;3.67;;;17.90;99.90;;;;;;4236763;27;20304;-77
2023/07/20 08:15:50;;;;;;;3.33;2.67;;;17.90;99.90;;;;;;4243478;27;20577;-77
2023/07/20 08:17:52;;;;;;;6.27;2.70;;;18.00;99.90;;;;;;4241463;27;20587;-77
2023/07/20 08:19:55;;;;;;;3.23;2.50;;;18.10;99.90;;;;;;4238049;27;20814;-77
2023/07/20 08:21:57;;;;;;;5.17;3.20;;;18.10;99.90;;;;;;4242552;27;20567;-77
2023/07/20 08:23:59;;;;;;;3.00;2.70;;;18.30;99.90;;;;;;4239713;27;20241;-77
2023/07/20 08:26:01;;;;;;;3.63;3.00;;;18.30;99.90;;;;;;4240034;27;20656;-77
2023/07/20 08:28:03;;;;;;;5.17;3.37;;;18.40;99.90;;;;;;4231999;28;20212;-77
2023/07/20 08:30:07;;;;;;;2.80;2.60;;;18.50;99.90;;;;;;4232952;27;20253;-77
2023/07/20 08:32:10;;;;;;;3.07;2.60;;;18.50;99.90;;;;;;4242236;27;20233;-77
2023/07/20 08:34:12;;;;;;;4.63;2.97;;;18.50;99.90;;;;;;4248490;27;20678;-77
2023/07/20 08:36:15;;;;;;;4.33;2.60;;;18.50;99.90;;;;;;4238052;27;20231;-77
2023/07/20 08:38:17;;;;;;;5.40;3.10;;;18.40;99.90;;;;;;4242937;27;20210;-78
2023/07/20 08:40:19;;;;;;;7.80;3.57;;;18.40;99.90;;;;;;4243611;27;20298;-77
2023/07/20 08:42:23;;;;;;;4.70;3.07;;;18.40;99.90;;;;;;4239230;27;20627;-77
2023/07/20 08:44:27;;;;;;;4.60;3.60;;;18.50;99.90;;;;;;4239470;27;20204;-77
2023/07/20 08:46:30;;;;;;;6.87;2.97;;;18.60;99.90;;;;;;4238894;27;20756;-77
2023/07/20 08:48:33;;;;;;;3.87;2.90;;;18.60;99.90;;;;;;4244201;27;20222;-77
2023/07/20 08:50:36;;;;;;;3.33;3.03;;;18.50;99.90;;;;;;4242919;27;20261;-78
2023/07/20 08:52:39;;;;;;;5.87;3.23;;;18.50;99.90;;;;;;4240895;27;20688;-78
2023/07/20 08:54:40;;;;;;;5.27;3.73;;;18.40;99.90;;;;;;4241023;27;20635;-78
2023/07/20 08:56:46;;;;;;;5.33;3.53;;;18.50;99.90;;;;;;4237294;27;20310;-78
2023/07/20 08:58:48;;;;;;;4.17;3.00;;;18.40;99.90;;;;;;4236211;27;20211;-77
2023/07/20 09:00:52;;;;;;;4.40;3.40;;;18.50;99.90;;;;;;4240792;27;20209;-79
2023/07/20 09:02:54;;;;;;;3.70;3.37;;;18.60;99.90;;;;;;4235278;27;20700;-78
2023/07/20 09:04:56;;;;;;;3.87;3.47;;;18.60;99.90;;;;;;4238383;27;20256;-77
2023/07/20 09:06:58;;;;;;;5.20;3.60;;;18.70;99.90;;;;;;4239736;27;20248;-78
2023/07/20 09:09:02;;;;;;;4.80;4.10;;;18.80;99.90;;;;;;4239705;27;20203;-77
2023/07/20 09:11:04;;;;;;;5.63;3.60;;;19.00;99.90;;;;;;4237282;27;20223;-78
2023/07/20 09:13:06;;;;;;;4.20;3.47;;;19.20;99.90;;;;;;4238975;27;20660;-77
2023/07/20 09:15:08;;;;;;;4.53;3.83;;;19.30;99.90;;;;;;4237731;27;20338;-77
2023/07/20 09:17:14;;;;;;;7.00;3.60;;;19.50;99.90;;;;;;4244323;27;20639;-77
2023/07/20 09:19:17;;;;;;;4.03;3.33;;;19.50;99.90;;;;;;4238696;27;20210;-77
2023/07/20 09:21:19;;;;;;;6.10;3.77;;;19.50;99.90;;;;;;4235006;27;20222;-77
2023/07/20 09:23:32;;;;;;;4.10;3.20;;;19.50;99.90;;;;;;4238463;27;20259;-77
2023/07/20 09:25:37;;;;;;;4.17;3.07;;;19.60;99.90;;;;;;4239070;27;20203;-77
2023/07/20 09:27:42;;;;;;;3.87;3.00;;;19.60;99.90;;;;;;4237894;27;20704;-77
2023/07/20 09:29:50;;;;;;;3.10;2.70;;;19.60;99.90;;;;;;4238987;27;20200;-79
2023/07/20 09:32:02;;;;;;;3.43;2.80;;;19.60;99.90;;;;;;4234456;27;20207;-78
2023/07/20 09:34:05;;;;;;;4.23;3.80;;;19.70;99.90;;;;;;4240226;27;20824;-83
2023/07/20 09:36:11;;;;;;;6.23;4.20;;;19.70;99.90;;;;;;4236587;27;20289;-76
2023/07/20 09:38:15;;;;;;;5.13;4.13;;;19.60;99.90;;;;;;4240737;27;20610;-77
2023/07/20 09:40:20;;;;;;;11.43;5.57;;;19.40;99.90;;;;;;4237883;27;20198;-77
2023/07/20 09:42:25;;;;;;;8.73;5.57;;;19.00;99.90;;;;;;4238691;27;20204;-78
2023/07/20 09:44:29;;;;;;;7.23;5.10;;;18.60;99.90;;;;;;4241603;27;20204;-80
2023/07/20 09:46:42;;;;;;;7.93;5.53;;;18.40;99.90;;;;;;4242605;27;20226;-78
2023/07/20 09:48:53;;;;;;;7.67;6.00;;;18.20;99.90;;;;;;4238851;27;20207;-77
2023/07/20 09:50:56;;;;;;;23.10;8.27;;;18.00;99.90;;;;;;4238177;27;20231;-78
2023/07/20 09:53:01;;;;;;;18.27;9.27;;;17.70;99.90;;;;;;4240755;27;20201;-78
2023/07/20 09:55:05;;;;;;;10.93;8.20;;;17.30;99.90;;;;;;4241656;27;20207;-77
2023/07/20 09:57:08;;;;;;;14.37;10.67;;;17.10;99.90;;;;;;4234600;27;20306;-77
2023/07/20 09:59:11;;;;;;;11.40;8.67;;;17.00;99.90;;;;;;4232657;27;20624;-76
2023/07/20 10:01:16;;;;;;;14.50;12.27;;;16.90;99.90;;;;;;4237871;27;20199;-77
2023/07/20 10:03:20;;;;;;;13.10;10.33;;;16.90;99.90;;;;;;4239637;27;20211;-77
2023/07/20 10:05:23;;;;;;;10.13;9.00;;;16.90;99.90;;;;;;4235121;27;20290;-77
2023/07/20 10:07:28;;;;;;;17.57;11.67;;;17.00;99.90;;;;;;4233804;27;20240;-77
2023/07/20 10:09:32;;;;;;;12.00;9.97;;;17.00;99.90;;;;;;4237461;27;20204;-77
2023/07/20 10:11:37;;;;;;;13.50;10.63;;;17.10;99.90;;;;;;4238422;27;20230;-77
2023/07/20 10:13:40;;;;;;;13.37;11.10;;;17.30;99.90;;;;;;4237538;27;20553;-76
2023/07/20 10:15:47;;;;;;;12.97;10.63;;;17.40;99.90;;;;;;4234356;27;20230;-76
2023/07/20 10:18:04;;;;;;;11.60;10.07;;;17.40;99.90;;;;;;4234522;27;20208;-76
2023/07/20 10:20:07;;;;;;;10.50;9.07;;;17.50;99.90;;;;;;4240386;27;20281;-76
2023/07/20 10:22:13;;;;;;;9.57;7.97;;;17.50;99.90;;;;;;4234922;27;20193;-76
2023/07/20 10:24:17;;;;;;;8.27;7.10;;;17.50;99.90;;;;;;4235162;27;20216;-76
2023/07/20 10:26:19;;;;;;;11.10;7.37;;;17.50;99.90;;;;;;4236739;27;20229;-76
2023/07/20 10:28:23;;;;;;;7.90;6.90;;;17.60;99.90;;;;;;4235019;27;20209;-76
2023/07/20 10:30:26;;;;;;;7.60;5.90;;;17.50;99.90;;;;;;4237425;27;20748;-76
2023/07/20 10:32:30;;;;;;;12.00;5.80;;;17.40;99.90;;;;;;4235857;27;20316;-76
2023/07/20 10:34:32;;;;;;;6.10;5.50;;;17.40;99.90;;;;;;4238192;27;20266;-76
2023/07/20 10:36:45;;;;;;;5.93;4.97;;;17.30;99.90;;;;;;4236661;27;20232;-75